sensor_id;sensor_type;location;lat;lon;timestamp;pressure;altitude;pressure_sealevel;temperature;humidity
54806;BME280;62866;55.776;37.496;2023-02-21T00:00:04;97542.81;;;-9.35;98.41
54806;BME280;62866;55.776;37.496;2023-02-21T00:02:48;97560.81;;;-9.33;99.07
54806;BME280;62866;55.776;37.496;2023-02-21T00:05:32;97553.44;;;-9.38;99.04
54806;BME280;62866;55.776;37.496;2023-02-21T00:08:16;97547.44;;;-9.38;99.30
54806;BME280;62866;55.776;37.496;2023-02-21T00:10:59;97546.44;;;-9.26;99.15
54806;BME280;62866;55.776;37.496;2023-02-21T00:13:43;97538.94;;;-9.29;98.88
54806;BME280;62866;55.776;37.496;2023-02-21T00:16:27;97542.22;;;-9.27;99.31
54806;BME280;62866;55.776;37.496;2023-02-21T00:19:11;97543.91;;;-9.37;99.48
54806;BME280;62866;55.776;37.496;2023-02-21T00:21:55;97532.84;;;-9.50;99.63
54806;BME280;62866;55.776;37.496;2023-02-21T00:24:39;97526.63;;;-9.70;99.63
54806;BME280;62866;55.776;37.496;2023-02-21T00:27:24;97533.22;;;-9.77;99.83
54806;BME280;62866;55.776;37.496;2023-02-21T00:30:09;97532.41;;;-9.89;99.47
54806;BME280;62866;55.776;37.496;2023-02-21T00:32:54;97525.09;;;-9.95;99.62
54806;BME280;62866;55.776;37.496;2023-02-21T00:35:37;97530.50;;;-9.98;99.88
54806;BME280;62866;55.776;37.496;2023-02-21T00:38:22;97520.75;;;-9.94;99.84
54806;BME280;62866;55.776;37.496;2023-02-21T00:41:05;97520.53;;;-9.80;100.00
54806;BME280;62866;55.776;37.496;2023-02-21T00:43:49;97513.34;;;-9.77;99.65
54806;BME280;62866;55.776;37.496;2023-02-21T00:46:33;97522.16;;;-9.68;99.93
54806;BME280;62866;55.776;37.496;2023-02-21T00:49:17;97517.81;;;-9.79;99.99
54806;BME280;62866;55.776;37.496;2023-02-21T00:52:01;97522.06;;;-9.89;99.97
54806;BME280;62866;55.776;37.496;2023-02-21T00:54:45;97509.72;;;-9.97;100.00
54806;BME280;62866;55.776;37.496;2023-02-21T00:57:29;97511.25;;;-10.05;100.00
54806;BME280;62866;55.776;37.496;2023-02-21T01:00:17;97494.09;;;-10.17;100.00
54806;BME280;62866;55.776;37.496;2023-02-21T01:03:02;97495.63;;;-10.26;100.00
54806;BME280;62866;55.776;37.496;2023-02-21T01:05:46;97495.84;;;-10.29;100.00
54806;BME280;62866;55.776;37.496;2023-02-21T01:08:30;97498.06;;;-10.36;100.00
54806;BME280;62866;55.776;37.496;2023-02-21T01:11:19;97481.03;;;-10.49;100.00
54806;BME280;62866;55.776;37.496;2023-02-21T01:14:04;97493.13;;;-10.50;100.00
54806;BME280;62866;55.776;37.496;2023-02-21T01:16:49;97486.31;;;-10.51;100.00
54806;BME280;62866;55.776;37.496;2023-02-21T01:19:33;97491.47;;;-10.51;100.00
54806;BME280;62866;55.776;37.496;2023-02-21T01:22:17;97493.44;;;-10.54;100.00
54806;BME280;62866;55.776;37.496;2023-02-21T01:25:00;97490.41;;;-10.59;99.97
54806;BME280;62866;55.776;37.496;2023-02-21T01:27:45;97488.19;;;-10.64;99.80
54806;BME280;62866;55.776;37.496;2023-02-21T01:30:28;97487.91;;;-10.72;99.36
54806;BME280;62866;55.776;37.496;2023-02-21T01:33:13;97485.09;;;-10.69;99.44
54806;BME280;62866;55.776;37.496;2023-02-21T01:35:57;97490.88;;;-10.65;99.28
54806;BME280;62866;55.776;37.496;2023-02-21T01:38:41;97478.53;;;-10.73;98.99
54806;BME280;62866;55.776;37.496;2023-02-21T01:41:24;97483.91;;;-10.76;98.86
54806;BME280;62866;55.776;37.496;2023-02-21T01:47:11;97488.81;;;-10.84;98.24
54806;BME280;62866;55.776;37.496;2023-02-21T01:49:56;97458.25;;;-11.01;98.25
54806;BME280;62866;55.776;37.496;2023-02-21T01:52:41;97487.13;;;-10.96;97.92
54806;BME280;62866;55.776;37.496;2023-02-21T01:55:25;97484.06;;;-11.01;97.81
54806;BME280;62866;55.776;37.496;2023-02-21T01:58:10;97482.28;;;-11.01;97.66
54806;BME280;62866;55.776;37.496;2023-02-21T02:00:54;97480.88;;;-11.05;97.40
54806;BME280;62866;55.776;37.496;2023-02-21T02:03:38;97488.22;;;-11.12;97.43
54806;BME280;62866;55.776;37.496;2023-02-21T02:06:23;97477.16;;;-11.25;97.55
54806;BME280;62866;55.776;37.496;2023-02-21T02:09:14;97486.66;;;-11.25;97.34
54806;BME280;62866;55.776;37.496;2023-02-21T02:17:42;97484.09;;;-11.38;96.83
54806;BME280;62866;55.776;37.496;2023-02-21T02:35:05;97482.72;;;-11.55;97.08
54806;BME280;62866;55.776;37.496;2023-02-21T02:40:45;97486.25;;;-11.56;97.40
54806;BME280;62866;55.776;37.496;2023-02-21T02:43:20;97484.63;;;-11.57;97.34
54806;BME280;62866;55.776;37.496;2023-02-21T02:45:57;97484.78;;;-11.47;97.46
54806;BME280;62866;55.776;37.496;2023-02-21T02:48:28;97488.19;;;-11.46;97.31
54806;BME280;62866;55.776;37.496;2023-02-21T02:50:55;97472.56;;;-11.56;97.07
54806;BME280;62866;55.776;37.496;2023-02-21T02:53:27;97479.00;;;-11.51;97.21
54806;BME280;62866;55.776;37.496;2023-02-21T02:55:57;97478.63;;;-11.57;97.13
54806;BME280;62866;55.776;37.496;2023-02-21T02:58:28;97478.63;;;-11.57;97.20
54806;BME280;62866;55.776;37.496;2023-02-21T03:07:08;97480.94;;;-11.41;96.73
54806;BME280;62866;55.776;37.496;2023-02-21T03:09:46;97480.19;;;-11.31;96.97
54806;BME280;62866;55.776;37.496;2023-02-21T03:15:03;97484.81;;;-11.36;97.13
54806;BME280;62866;55.776;37.496;2023-02-21T03:17:31;97477.53;;;-11.42;96.99
54806;BME280;62866;55.776;37.496;2023-02-21T03:19:59;97485.06;;;-11.39;97.62
54806;BME280;62866;55.776;37.496;2023-02-21T03:22:27;97480.22;;;-11.43;97.46
54806;BME280;62866;55.776;37.496;2023-02-21T03:24:55;97481.03;;;-11.43;97.53
54806;BME280;62866;55.776;37.496;2023-02-21T03:27:24;97478.66;;;-11.46;97.02
54806;BME280;62866;55.776;37.496;2023-02-21T03:29:53;97484.72;;;-11.34;96.98
54806;BME280;62866;55.776;37.496;2023-02-21T03:32:39;97487.25;;;-11.22;97.14
54806;BME280;62866;55.776;37.496;2023-02-21T03:35:06;97480.50;;;-11.35;96.82
54806;BME280;62866;55.776;37.496;2023-02-21T03:37:34;97481.44;;;-11.36;96.85
54806;BME280;62866;55.776;37.496;2023-02-21T03:40:00;97467.44;;;-11.45;96.52
54806;BME280;62866;55.776;37.496;2023-02-21T03:42:26;97472.47;;;-11.43;96.58
54806;BME280;62866;55.776;37.496;2023-02-21T03:44:51;97471.34;;;-11.39;96.30
54806;BME280;62866;55.776;37.496;2023-02-21T03:47:17;97466.78;;;-11.36;96.34
54806;BME280;62866;55.776;37.496;2023-02-21T03:49:43;97475.34;;;-11.35;96.45
54806;BME280;62866;55.776;37.496;2023-02-21T03:52:10;97463.88;;;-11.31;96.28
54806;BME280;62866;55.776;37.496;2023-02-21T03:54:38;97464.09;;;-11.34;95.89
54806;BME280;62866;55.776;37.496;2023-02-21T03:57:03;97466.13;;;-11.51;95.80
54806;BME280;62866;55.776;37.496;2023-02-21T03:59:29;97463.81;;;-11.66;95.72
54806;BME280;62866;55.776;37.496;2023-02-21T04:01:54;97478.28;;;-11.76;95.48
54806;BME280;62866;55.776;37.496;2023-02-21T04:04:20;97460.06;;;-11.86;95.50
54806;BME280;62866;55.776;37.496;2023-02-21T04:06:46;97468.31;;;-11.81;95.15
54806;BME280;62866;55.776;37.496;2023-02-21T04:09:11;97467.50;;;-11.81;94.67
54806;BME280;62866;55.776;37.496;2023-02-21T04:11:37;97466.97;;;-11.86;94.77
54806;BME280;62866;55.776;37.496;2023-02-21T04:14:02;97464.13;;;-11.95;94.99
54806;BME280;62866;55.776;37.496;2023-02-21T04:16:29;97468.59;;;-12.09;95.12
54806;BME280;62866;55.776;37.496;2023-02-21T04:18:54;97474.88;;;-12.13;94.99
54806;BME280;62866;55.776;37.496;2023-02-21T04:21:21;97466.03;;;-12.22;94.93
54806;BME280;62866;55.776;37.496;2023-02-21T04:23:46;97465.59;;;-12.29;94.65
54806;BME280;62866;55.776;37.496;2023-02-21T04:26:13;97469.94;;;-12.29;94.57
54806;BME280;62866;55.776;37.496;2023-02-21T04:28:38;97476.22;;;-12.33;94.79
54806;BME280;62866;55.776;37.496;2023-02-21T04:31:04;97473.94;;;-12.38;94.81
54806;BME280;62866;55.776;37.496;2023-02-21T04:33:30;97483.25;;;-12.48;94.49
54806;BME280;62866;55.776;37.496;2023-02-21T04:35:55;97479.41;;;-12.55;94.88
54806;BME280;62866;55.776;37.496;2023-02-21T04:38:21;97483.84;;;-12.57;94.82
54806;BME280;62866;55.776;37.496;2023-02-21T04:40:46;97485.50;;;-12.56;94.68
54806;BME280;62866;55.776;37.496;2023-02-21T04:43:12;97478.63;;;-12.55;94.37
54806;BME280;62866;55.776;37.496;2023-02-21T04:45:37;97486.09;;;-12.52;94.29
54806;BME280;62866;55.776;37.496;2023-02-21T04:48:03;97482.09;;;-12.44;94.10
54806;BME280;62866;55.776;37.496;2023-02-21T04:50:29;97497.53;;;-12.44;93.86
54806;BME280;62866;55.776;37.496;2023-02-21T04:52:54;97490.75;;;-12.57;93.80
54806;BME280;62866;55.776;37.496;2023-02-21T04:55:20;97494.34;;;-12.60;93.48
54806;BME280;62866;55.776;37.496;2023-02-21T04:57:45;97503.53;;;-12.56;93.34
54806;BME280;62866;55.776;37.496;2023-02-21T05:00:11;97507.44;;;-12.50;93.08
54806;BME280;62866;55.776;37.496;2023-02-21T05:02:41;97509.50;;;-12.55;92.90
54806;BME280;62866;55.776;37.496;2023-02-21T05:05:07;97496.31;;;-12.63;92.77
54806;BME280;62866;55.776;37.496;2023-02-21T05:07:33;97508.44;;;-12.53;92.63
54806;BME280;62866;55.776;37.496;2023-02-21T05:09:58;97507.53;;;-12.52;92.60
54806;BME280;62866;55.776;37.496;2023-02-21T05:12:24;97476.13;;;-12.70;92.48
54806;BME280;62866;55.776;37.496;2023-02-21T05:14:49;97502.78;;;-12.58;92.39
54806;BME280;62866;55.776;37.496;2023-02-21T05:17:15;97504.81;;;-12.63;92.29
54806;BME280;62866;55.776;37.496;2023-02-21T05:19:41;97498.25;;;-12.67;92.50
54806;BME280;62866;55.776;37.496;2023-02-21T05:22:06;97508.53;;;-12.54;92.51
54806;BME280;62866;55.776;37.496;2023-02-21T05:24:32;97507.25;;;-12.47;92.48
54806;BME280;62866;55.776;37.496;2023-02-21T05:26:58;97508.47;;;-12.40;92.46
54806;BME280;62866;55.776;37.496;2023-02-21T05:29:24;97503.09;;;-12.37;92.54
54806;BME280;62866;55.776;37.496;2023-02-21T05:31:50;97505.88;;;-12.27;92.31
54806;BME280;62866;55.776;37.496;2023-02-21T05:34:16;97511.44;;;-12.08;92.45
54806;BME280;62866;55.776;37.496;2023-02-21T05:36:44;97499.16;;;-12.05;92.44
54806;BME280;62866;55.776;37.496;2023-02-21T05:39:10;97519.97;;;-11.59;91.79
54806;BME280;62866;55.776;37.496;2023-02-21T05:41:36;97517.31;;;-11.09;92.16
54806;BME280;62866;55.776;37.496;2023-02-21T05:44:02;97516.41;;;-11.08;91.85
54806;BME280;62866;55.776;37.496;2023-02-21T05:46:33;97523.56;;;-11.01;91.22
54806;BME280;62866;55.776;37.496;2023-02-21T05:49:01;97519.72;;;-11.19;91.05
54806;BME280;62866;55.776;37.496;2023-02-21T05:51:30;97502.75;;;-11.22;90.71
54806;BME280;62866;55.776;37.496;2023-02-21T05:53:58;97518.59;;;-10.91;90.37
54806;BME280;62866;55.776;37.496;2023-02-21T05:56:24;97509.50;;;-10.62;90.07
54806;BME280;62866;55.776;37.496;2023-02-21T05:58:49;97514.97;;;-10.43;89.86
54806;BME280;62866;55.776;37.496;2023-02-21T06:01:15;97514.00;;;-10.64;90.06
54806;BME280;62866;55.776;37.496;2023-02-21T06:03:40;97512.25;;;-10.87;90.51
54806;BME280;62866;55.776;37.496;2023-02-21T06:06:06;97509.47;;;-11.08;90.61
54806;BME280;62866;55.776;37.496;2023-02-21T06:08:31;97506.28;;;-11.12;90.76
54806;BME280;62866;55.776;37.496;2023-02-21T06:10:57;97510.78;;;-11.02;90.51
54806;BME280;62866;55.776;37.496;2023-02-21T06:13:22;97514.31;;;-10.68;90.04
54806;BME280;62866;55.776;37.496;2023-02-21T06:15:48;97508.22;;;-10.67;90.00
54806;BME280;62866;55.776;37.496;2023-02-21T06:18:14;97505.34;;;-10.87;90.02
54806;BME280;62866;55.776;37.496;2023-02-21T06:20:40;97512.59;;;-10.92;89.89
54806;BME280;62866;55.776;37.496;2023-02-21T06:23:06;97524.06;;;-10.72;90.16
54806;BME280;62866;55.776;37.496;2023-02-21T06:25:35;97516.22;;;-10.59;90.37
54806;BME280;62866;55.776;37.496;2023-02-21T06:28:01;97516.63;;;-10.77;89.83
54806;BME280;62866;55.776;37.496;2023-02-21T06:30:32;97513.13;;;-10.76;89.73
54806;BME280;62866;55.776;37.496;2023-02-21T06:32:58;97505.72;;;-10.34;90.06
54806;BME280;62866;55.776;37.496;2023-02-21T06:35:23;97513.25;;;-10.20;89.99
54806;BME280;62866;55.776;37.496;2023-02-21T06:37:49;97512.19;;;-9.84;89.90
54806;BME280;62866;55.776;37.496;2023-02-21T06:40:15;97509.69;;;-8.98;89.16
54806;BME280;62866;55.776;37.496;2023-02-21T06:42:40;97504.44;;;-7.73;88.09
54806;BME280;62866;55.776;37.496;2023-02-21T06:45:09;97503.41;;;-6.92;86.42
54806;BME280;62866;55.776;37.496;2023-02-21T06:47:34;97501.22;;;-5.92;85.18
54806;BME280;62866;55.776;37.496;2023-02-21T06:50:00;97506.34;;;-5.36;83.10
54806;BME280;62866;55.776;37.496;2023-02-21T06:52:26;97512.00;;;-4.78;81.02
54806;BME280;62866;55.776;37.496;2023-02-21T06:54:51;97513.53;;;-4.14;80.00
54806;BME280;62866;55.776;37.496;2023-02-21T06:57:17;97521.03;;;-3.25;80.29
54806;BME280;62866;55.776;37.496;2023-02-21T06:59:43;97520.56;;;-2.46;79.13
54806;BME280;62866;55.776;37.496;2023-02-21T07:02:15;97507.94;;;-1.78;77.86
54806;BME280;62866;55.776;37.496;2023-02-21T07:04:43;97505.03;;;-1.28;75.67
54806;BME280;62866;55.776;37.496;2023-02-21T07:07:08;97513.69;;;-0.88;76.49
54806;BME280;62866;55.776;37.496;2023-02-21T07:09:36;97514.22;;;-0.93;74.86
54806;BME280;62866;55.776;37.496;2023-02-21T07:12:02;97509.09;;;-0.86;73.66
54806;BME280;62866;55.776;37.496;2023-02-21T07:14:30;97505.72;;;-1.50;71.86
54806;BME280;62866;55.776;37.496;2023-02-21T07:16:56;97522.38;;;-1.98;73.11
54806;BME280;62866;55.776;37.496;2023-02-21T07:19:21;97526.78;;;-2.31;73.28
54806;BME280;62866;55.776;37.496;2023-02-21T07:21:47;97516.81;;;-1.95;74.11
54806;BME280;62866;55.776;37.496;2023-02-21T07:24:12;97514.81;;;-1.22;74.91
54806;BME280;62866;55.776;37.496;2023-02-21T07:26:38;97523.41;;;-0.20;76.54
54806;BME280;62866;55.776;37.496;2023-02-21T07:29:05;97515.88;;;-0.23;73.10
54806;BME280;62866;55.776;37.496;2023-02-21T07:31:33;97504.50;;;0.51;73.90
54806;BME280;62866;55.776;37.496;2023-02-21T07:34:02;97527.44;;;0.87;71.99
54806;BME280;62866;55.776;37.496;2023-02-21T07:36:27;97520.75;;;0.55;66.62
54806;BME280;62866;55.776;37.496;2023-02-21T07:38:53;97525.75;;;0.50;67.13
54806;BME280;62866;55.776;37.496;2023-02-21T07:41:18;97505.28;;;1.46;74.50
54806;BME280;62866;55.776;37.496;2023-02-21T07:43:47;97524.69;;;1.81;74.56
54806;BME280;62866;55.776;37.496;2023-02-21T07:46:15;97524.94;;;1.29;73.54
54806;BME280;62866;55.776;37.496;2023-02-21T07:48:41;97519.91;;;0.25;67.05
54806;BME280;62866;55.776;37.496;2023-02-21T07:51:07;97522.66;;;0.09;72.64
54806;BME280;62866;55.776;37.496;2023-02-21T07:53:34;97517.47;;;0.53;74.56
54806;BME280;62866;55.776;37.496;2023-02-21T07:56:00;97497.81;;;0.78;76.74
54806;BME280;62866;55.776;37.496;2023-02-21T07:58:25;97502.47;;;1.12;77.49
54806;BME280;62866;55.776;37.496;2023-02-21T08:00:51;97534.53;;;1.73;76.48
54806;BME280;62866;55.776;37.496;2023-02-21T08:03:20;97527.47;;;2.01;74.15
54806;BME280;62866;55.776;37.496;2023-02-21T08:05:45;97528.28;;;2.02;74.32
54806;BME280;62866;55.776;37.496;2023-02-21T08:08:11;97525.88;;;2.00;74.18
54806;BME280;62866;55.776;37.496;2023-02-21T08:10:38;97527.41;;;2.44;74.68
54806;BME280;62866;55.776;37.496;2023-02-21T08:13:04;97516.66;;;1.89;68.96
54806;BME280;62866;55.776;37.496;2023-02-21T08:15:29;97532.69;;;1.16;68.14
54806;BME280;62866;55.776;37.496;2023-02-21T08:17:55;97530.06;;;0.43;71.10
54806;BME280;62866;55.776;37.496;2023-02-21T08:20:21;97536.59;;;-0.82;71.86
54806;BME280;62866;55.776;37.496;2023-02-21T08:22:46;97533.63;;;-1.10;75.68
54806;BME280;62866;55.776;37.496;2023-02-21T08:25:13;97541.84;;;-1.93;74.32
54806;BME280;62866;55.776;37.496;2023-02-21T08:27:40;97544.13;;;-2.30;76.80
54806;BME280;62866;55.776;37.496;2023-02-21T08:30:07;97541.69;;;-2.07;78.26
54806;BME280;62866;55.776;37.496;2023-02-21T08:32:34;97545.28;;;-1.76;77.97
54806;BME280;62866;55.776;37.496;2023-02-21T08:35:00;97544.03;;;-1.41;77.25
54806;BME280;62866;55.776;37.496;2023-02-21T08:37:27;97530.81;;;-0.24;77.96
54806;BME280;62866;55.776;37.496;2023-02-21T08:39:57;97534.81;;;0.62;76.08
54806;BME280;62866;55.776;37.496;2023-02-21T08:42:24;97546.97;;;1.43;73.74
54806;BME280;62866;55.776;37.496;2023-02-21T08:44:49;97535.00;;;2.25;75.23
54806;BME280;62866;55.776;37.496;2023-02-21T08:47:16;97539.97;;;2.14;71.74
54806;BME280;62866;55.776;37.496;2023-02-21T08:49:50;97545.75;;;2.03;67.17
54806;BME280;62866;55.776;37.496;2023-02-21T08:52:17;97539.13;;;2.97;73.48
54806;BME280;62866;55.776;37.496;2023-02-21T08:54:45;97538.03;;;2.50;72.85
54806;BME280;62866;55.776;37.496;2023-02-21T08:57:11;97538.19;;;3.78;73.79
54806;BME280;62866;55.776;37.496;2023-02-21T08:59:41;97541.25;;;4.02;67.95
54806;BME280;62866;55.776;37.496;2023-02-21T09:02:14;97524.31;;;3.57;65.45
54806;BME280;62866;55.776;37.496;2023-02-21T09:04:41;97539.25;;;3.30;63.81
54806;BME280;62866;55.776;37.496;2023-02-21T09:07:06;97536.97;;;3.68;69.89
54806;BME280;62866;55.776;37.496;2023-02-21T09:09:32;97531.09;;;4.05;68.27
54806;BME280;62866;55.776;37.496;2023-02-21T09:11:57;97546.91;;;3.72;66.84
54806;BME280;62866;55.776;37.496;2023-02-21T09:14:23;97529.16;;;3.47;66.60
54806;BME280;62866;55.776;37.496;2023-02-21T09:16:48;97550.63;;;3.30;66.96
54806;BME280;62866;55.776;37.496;2023-02-21T09:19:14;97540.41;;;3.14;67.89
54806;BME280;62866;55.776;37.496;2023-02-21T09:21:45;97526.56;;;2.09;68.54
54806;BME280;62866;55.776;37.496;2023-02-21T09:24:11;97550.28;;;2.09;70.65
54806;BME280;62866;55.776;37.496;2023-02-21T09:26:36;97546.13;;;1.42;68.14
54806;BME280;62866;55.776;37.496;2023-02-21T09:29:02;97549.31;;;0.06;68.20
54806;BME280;62866;55.776;37.496;2023-02-21T09:31:27;97520.91;;;-0.90;71.27
54806;BME280;62866;55.776;37.496;2023-02-21T09:33:53;97551.66;;;-1.78;72.66
54806;BME280;62866;55.776;37.496;2023-02-21T09:36:18;97555.38;;;-2.70;73.76
54806;BME280;62866;55.776;37.496;2023-02-21T09:38:49;97562.00;;;-3.26;74.73
54806;BME280;62866;55.776;37.496;2023-02-21T09:41:15;97547.25;;;-3.95;75.03
54806;BME280;62866;55.776;37.496;2023-02-21T09:43:45;97573.50;;;-4.67;74.10
54806;BME280;62866;55.776;37.496;2023-02-21T09:46:46;97553.53;;;-5.21;73.60
54806;BME280;62866;55.776;37.496;2023-02-21T09:51:49;97545.88;;;-5.60;75.17
54806;BME280;62866;55.776;37.496;2023-02-21T09:54:30;97557.19;;;-5.79;76.58
54806;BME280;62866;55.776;37.496;2023-02-21T09:57:02;97555.09;;;-5.75;77.18
54806;BME280;62866;55.776;37.496;2023-02-21T09:59:28;97560.88;;;-5.81;nan
54806;BME280;62866;55.776;37.496;2023-02-21T10:07:50;97565.13;;;-6.46;79.17
54806;BME280;62866;55.776;37.496;2023-02-21T10:10:17;97566.63;;;-6.53;79.67
54806;BME280;62866;55.776;37.496;2023-02-21T10:18:14;97568.94;;;-6.11;80.25
54806;BME280;62866;55.776;37.496;2023-02-21T10:20:54;97569.00;;;-5.94;80.05
54806;BME280;62866;55.776;37.496;2023-02-21T10:23:49;97572.84;;;-5.88;80.65
54806;BME280;62866;55.776;37.496;2023-02-21T10:26:24;97570.59;;;-5.83;80.70
54806;BME280;62866;55.776;37.496;2023-02-21T10:28:51;97582.19;;;-6.24;80.81
54806;BME280;62866;55.776;37.496;2023-02-21T10:31:21;97555.75;;;-6.77;81.13
54806;BME280;62866;55.776;37.496;2023-02-21T10:33:48;97580.13;;;-6.69;81.48
54806;BME280;62866;55.776;37.496;2023-02-21T10:36:19;97572.53;;;-7.20;81.98
54806;BME280;62866;55.776;37.496;2023-02-21T10:39:02;97556.53;;;-7.55;82.76
54806;BME280;62866;55.776;37.496;2023-02-21T10:41:29;97594.28;;;-7.72;82.64
54806;BME280;62866;55.776;37.496;2023-02-21T10:44:04;97568.09;;;-7.90;83.30
54806;BME280;62866;55.776;37.496;2023-02-21T10:46:59;97569.47;;;-7.86;83.91
54806;BME280;62866;55.776;37.496;2023-02-21T10:52:20;97606.31;;;-7.92;82.88
54806;BME280;62866;55.776;37.496;2023-02-21T10:55:04;97581.59;;;-8.17;82.50
54806;BME280;62866;55.776;37.496;2023-02-21T10:57:38;97608.53;;;-7.87;82.73
54806;BME280;62866;55.776;37.496;2023-02-21T11:00:05;97613.50;;;-7.54;82.88
54806;BME280;62866;55.776;37.496;2023-02-21T11:02:42;97618.84;;;-7.15;82.51
54806;BME280;62866;55.776;37.496;2023-02-21T11:05:18;97621.69;;;-6.78;82.75
54806;BME280;62866;55.776;37.496;2023-02-21T11:08:07;97614.88;;;-6.51;83.21
54806;BME280;62866;55.776;37.496;2023-02-21T11:10:36;97618.59;;;-6.43;83.30
54806;BME280;62866;55.776;37.496;2023-02-21T11:13:16;97630.50;;;-6.41;83.07
54806;BME280;62866;55.776;37.496;2023-02-21T11:15:45;97628.31;;;-6.45;83.12
54806;BME280;62866;55.776;37.496;2023-02-21T11:18:17;97622.50;;;-6.87;83.05
54806;BME280;62866;55.776;37.496;2023-02-21T11:20:44;97624.00;;;-6.95;83.21
54806;BME280;62866;55.776;37.496;2023-02-21T11:25:47;97632.72;;;-6.96;82.03
54806;BME280;62866;55.776;37.496;2023-02-21T11:28:18;97623.16;;;-6.95;81.54
54806;BME280;62866;55.776;37.496;2023-02-21T11:30:49;97633.31;;;-6.82;82.11
54806;BME280;62866;55.776;37.496;2023-02-21T11:33:28;97624.72;;;-6.73;82.36
54806;BME280;62866;55.776;37.496;2023-02-21T11:39:03;97629.00;;;-7.03;83.51
54806;BME280;62866;55.776;37.496;2023-02-21T11:42:22;97625.97;;;-7.08;83.28
54806;BME280;62866;55.776;37.496;2023-02-21T11:44:37;97641.47;;;-6.97;83.59
54806;BME280;62866;55.776;37.496;2023-02-21T11:50:07;97648.88;;;-6.82;82.52
54806;BME280;62866;55.776;37.496;2023-02-21T11:52:47;97654.53;;;-6.68;82.72
54806;BME280;62866;55.776;37.496;2023-02-21T11:55:17;97655.28;;;-6.46;82.99
54806;BME280;62866;55.776;37.496;2023-02-21T12:06:20;97670.34;;;-6.90;83.58
54806;BME280;62866;55.776;37.496;2023-02-21T12:09:06;97663.78;;;-6.84;83.79
54806;BME280;62866;55.776;37.496;2023-02-21T12:11:50;97668.63;;;-6.61;83.89
54806;BME280;62866;55.776;37.496;2023-02-21T12:14:27;97666.84;;;-6.60;83.86
54806;BME280;62866;55.776;37.496;2023-02-21T12:22:47;97682.50;;;-7.21;82.86
54806;BME280;62866;55.776;37.496;2023-02-21T12:25:19;97684.66;;;-7.26;82.86
54806;BME280;62866;55.776;37.496;2023-02-21T12:33:42;97700.25;;;-7.68;82.71
54806;BME280;62866;55.776;37.496;2023-02-21T12:45:17;97721.41;;;-8.04;83.82
54806;BME280;62866;55.776;37.496;2023-02-21T12:47:59;97709.19;;;-8.13;83.11
54806;BME280;62866;55.776;37.496;2023-02-21T12:50:35;97691.28;;;-8.37;83.04
54806;BME280;62866;55.776;37.496;2023-02-21T12:56:14;97730.16;;;-8.16;83.86
54806;BME280;62866;55.776;37.496;2023-02-21T12:59:05;97748.44;;;-8.18;83.34
54806;BME280;62866;55.776;37.496;2023-02-21T13:02:11;97741.66;;;-8.30;83.44
54806;BME280;62866;55.776;37.496;2023-02-21T13:04:46;97738.97;;;-8.39;82.90
54806;BME280;62866;55.776;37.496;2023-02-21T13:07:42;97740.19;;;-8.55;82.29
54806;BME280;62866;55.776;37.496;2023-02-21T13:10:25;97736.78;;;-8.55;81.42
54806;BME280;62866;55.776;37.496;2023-02-21T13:12:58;97749.00;;;-8.46;81.54
54806;BME280;62866;55.776;37.496;2023-02-21T13:15:28;97748.28;;;-8.37;82.35
54806;BME280;62866;55.776;37.496;2023-02-21T13:20:39;97758.84;;;-8.29;83.20
54806;BME280;62866;55.776;37.496;2023-02-21T13:23:25;97771.91;;;-8.30;84.16
54806;BME280;62866;55.776;37.496;2023-02-21T13:28:43;97761.25;;;-8.37;85.04
54806;BME280;62866;55.776;37.496;2023-02-21T13:31:20;97787.22;;;-8.27;85.32
54806;BME280;62866;55.776;37.496;2023-02-21T13:33:55;97781.16;;;-8.37;85.73
54806;BME280;62866;55.776;37.496;2023-02-21T13:36:28;97787.72;;;-8.45;85.81
54806;BME280;62866;55.776;37.496;2023-02-21T13:44:11;97819.75;;;-9.12;84.08
54806;BME280;62866;55.776;37.496;2023-02-21T13:52:35;97802.66;;;-9.15;85.00
54806;BME280;62866;55.776;37.496;2023-02-21T14:09:09;97848.88;;;-9.22;87.31
54806;BME280;62866;55.776;37.496;2023-02-21T14:11:18;97854.22;;;-9.36;87.58
54806;BME280;62866;55.776;37.496;2023-02-21T14:13:57;97855.56;;;-9.30;87.90
54806;BME280;62866;55.776;37.496;2023-02-21T14:19:10;97865.44;;;-9.59;87.32
54806;BME280;62866;55.776;37.496;2023-02-21T14:26:44;97872.31;;;-9.71;87.38
54806;BME280;62866;55.776;37.496;2023-02-21T14:34:51;97872.34;;;-9.83;87.97
54806;BME280;62866;55.776;37.496;2023-02-21T14:37:30;97903.00;;;-9.66;88.50
54806;BME280;62866;55.776;37.496;2023-02-21T14:42:50;97911.69;;;-9.67;88.51
54806;BME280;62866;55.776;37.496;2023-02-21T14:45:43;97922.38;;;-9.72;88.63
54806;BME280;62866;55.776;37.496;2023-02-21T15:05:23;97949.78;;;-10.18;89.08
54806;BME280;62866;55.776;37.496;2023-02-21T15:10:39;97968.25;;;-10.12;89.24
54806;BME280;62866;55.776;37.496;2023-02-21T15:13:05;97964.47;;;-10.19;88.85
54806;BME280;62866;55.776;37.496;2023-02-21T15:15:35;97971.06;;;-10.15;89.37
54806;BME280;62866;55.776;37.496;2023-02-21T15:18:08;97975.16;;;-10.12;88.99
54806;BME280;62866;55.776;37.496;2023-02-21T15:20:41;97986.25;;;-10.10;89.38
54806;BME280;62866;55.776;37.496;2023-02-21T15:25:36;97990.22;;;-10.17;89.48
54806;BME280;62866;55.776;37.496;2023-02-21T15:28:05;97991.13;;;-10.18;89.36
54806;BME280;62866;55.776;37.496;2023-02-21T15:30:40;97995.38;;;-10.30;89.52
54806;BME280;62866;55.776;37.496;2023-02-21T15:33:18;97999.41;;;-10.26;89.81
54806;BME280;62866;55.776;37.496;2023-02-21T15:38:27;97977.81;;;-10.38;90.12
54806;BME280;62866;55.776;37.496;2023-02-21T15:40:56;98009.13;;;-10.29;89.84
54806;BME280;62866;55.776;37.496;2023-02-21T15:43:41;98020.50;;;-10.32;89.84
54806;BME280;62866;55.776;37.496;2023-02-21T15:46:13;98015.63;;;-10.37;89.91
54806;BME280;62866;55.776;37.496;2023-02-21T15:48:40;98017.19;;;-10.47;89.93
54806;BME280;62866;55.776;37.496;2023-02-21T15:51:08;98029.34;;;-10.49;89.75
54806;BME280;62866;55.776;37.496;2023-02-21T15:53:34;98034.00;;;-10.41;89.74